Time;durP1;ratioP1;P1;durP2;ratioP2;P2;SDS_P1;SDS_P2;PMS_P1;PMS_P2;Temp;Humidity;BMP_temperature;BMP_pressure;BME280_temperature;BME280_humidity;BME280_pressure;Samples;Min_cycle;Max_cycle;Signal;HPM_P1;HPM_P2
2022/11/02 00:00:33;;;;;;;1.95;0.73;;;11.90;99.90;;;;;;20743484;28;20338;-39
2022/11/02 00:10:34;;;;;;;1.35;0.50;;;11.90;99.90;;;;;;20750197;28;20209;-39
2022/11/02 00:20:38;;;;;;;3.22;1.33;;;11.90;99.90;;;;;;20745005;28;20052;-39
2022/11/02 00:30:39;;;;;;;4.40;1.02;;;11.90;99.90;;;;;;20754159;28;20140;-39
2022/11/02 00:40:40;;;;;;;2.05;1.33;;;12.00;99.90;;;;;;20766969;28;20552;-39
2022/11/02 00:50:41;;;;;;;1.52;0.50;;;12.10;99.90;;;;;;20801489;28;20774;-38
2022/11/02 01:00:42;;;;;;;1.33;0.50;;;12.10;99.90;;;;;;20785901;28;20599;-39
2022/11/02 01:10:43;;;;;;;0.57;0.10;;;11.60;99.90;;;;;;20770579;28;20496;-39
2022/11/02 01:20:44;;;;;;;0.63;0.20;;;11.10;99.90;;;;;;20781417;28;20063;-39
2022/11/02 01:30:47;;;;;;;6.28;0.88;;;10.90;99.90;;;;;;20751160;28;20065;-39
2022/11/02 01:40:48;;;;;;;2.42;0.65;;;11.00;99.90;;;;;;20757987;28;20525;-39
2022/11/02 01:50:49;;;;;;;2.20;0.68;;;10.90;99.90;;;;;;20737172;28;20205;-39
2022/11/02 02:00:50;;;;;;;0.70;0.20;;;10.80;99.90;;;;;;20728735;28;20628;-39
2022/11/02 02:10:55;;;;;;;1.98;0.73;;;10.60;99.90;;;;;;20753007;28;20673;-39
2022/11/02 02:21:39;;;;;;;1.25;0.52;;;10.60;99.90;;;;;;20727291;28;20196;-39
2022/11/02 02:32:00;;;;;;;0.70;0.30;;;10.60;99.90;;;;;;20724404;28;20882;-39
2022/11/02 02:42:18;;;;;;;1.23;0.40;;;10.80;99.90;;;;;;20725541;28;20158;-39
2022/11/02 02:52:22;;;;;;;2.50;1.15;;;11.00;99.90;;;;;;20735036;28;20088;-39
2022/11/02 03:02:31;;;;;;;5.00;1.75;;;11.20;99.90;;;;;;20718425;28;20654;-39
2022/11/02 03:12:59;;;;;;;3.60;0.95;;;11.50;99.90;;;;;;20735595;28;21005;-39
2022/11/02 03:23:19;;;;;;;;;;;11.60;99.90;;;;;;20732796;28;20251;-39
2022/11/02 03:33:30;;;;;;;5.60;1.20;;;11.60;99.90;;;;;;20746900;28;19932;-39
2022/11/02 03:43:34;;;;;;;2.30;0.70;;;11.60;99.90;;;;;;20734294;28;20309;-39
2022/11/02 03:54:04;;;;;;;3.15;1.42;;;11.60;99.90;;;;;;20747941;28;20795;-39
2022/11/02 04:04:05;;;;;;;4.10;1.08;;;11.60;99.90;;;;;;20741676;28;20492;-39
2022/11/02 04:34:45;;;;;;;2.50;0.73;;;11.50;99.90;;;;;;20739559;28;20588;-39
2022/11/02 04:44:46;;;;;;;4.75;1.90;;;11.60;99.90;;;;;;20720276;28;20045;-39
2022/11/02 04:54:47;;;;;;;2.72;1.05;;;11.60;99.90;;;;;;20740132;28;20056;-39
2022/11/02 05:04:48;;;;;;;4.97;1.20;;;11.50;99.90;;;;;;20729244;28;20055;-39
2022/11/02 05:14:49;;;;;;;1.63;0.70;;;11.40;99.90;;;;;;20737338;28;20107;-39
2022/11/02 05:24:50;;;;;;;6.22;1.73;;;11.40;99.90;;;;;;20728517;28;20049;-39
2022/11/02 05:34:51;;;;;;;11.43;1.77;;;11.30;99.90;;;;;;20747211;28;20084;-39
2022/11/02 05:44:52;;;;;;;1.92;0.55;;;11.30;99.90;;;;;;20720890;28;21233;-39
2022/11/02 05:54:53;;;;;;;6.68;1.98;;;11.40;99.90;;;;;;20722525;28;20076;-39
2022/11/02 06:04:54;;;;;;;2.47;0.80;;;11.30;99.90;;;;;;20719033;28;20512;-39
2022/11/02 06:14:55;;;;;;;2.90;1.02;;;11.20;99.90;;;;;;20721164;28;20049;-39
2022/11/02 06:24:56;;;;;;;5.25;1.15;;;11.20;99.90;;;;;;20729631;28;20045;-39
2022/11/02 06:34:57;;;;;;;1.92;0.40;;;11.30;99.90;;;;;;20725979;28;20046;-39
2022/11/02 06:45:01;;;;;;;2.03;1.20;;;11.30;99.90;;;;;;20728058;28;20123;-39
2022/11/02 06:55:02;;;;;;;3.47;0.50;;;11.30;99.90;;;;;;20745557;28;20621;-39
2022/11/02 07:05:04;;;;;;;1.58;0.50;;;11.20;99.90;;;;;;20733392;28;20121;-39
2022/11/02 07:15:05;;;;;;;2.28;0.65;;;11.10;99.90;;;;;;20726235;28;20139;-39
2022/11/02 07:25:06;;;;;;;2.03;0.52;;;11.10;99.90;;;;;;20748339;28;21344;-39
2022/11/02 07:35:09;;;;;;;2.30;1.17;;;11.20;99.90;;;;;;20745879;28;20141;-39
2022/11/02 07:45:11;;;;;;;1.98;0.50;;;11.20;99.90;;;;;;20755717;28;20686;-39
2022/11/02 07:55:14;;;;;;;1.58;0.50;;;11.40;99.90;;;;;;20721663;28;20152;-39
2022/11/02 08:05:15;;;;;;;1.48;0.40;;;11.30;99.90;;;;;;20747048;28;20049;-39
2022/11/02 08:15:16;;;;;;;4.07;1.73;;;11.50;99.90;;;;;;20755867;28;20599;-39
2022/11/02 08:25:17;;;;;;;4.20;0.70;;;11.90;99.90;;;;;;20727663;28;20041;-39
2022/11/02 08:35:18;;;;;;;1.35;0.50;;;12.10;99.90;;;;;;20775413;28;20072;-39
2022/11/02 08:45:19;;;;;;;2.85;0.55;;;12.40;99.90;;;;;;20761302;28;20136;-39
2022/11/02 08:55:20;;;;;;;3.80;1.10;;;12.70;99.90;;;;;;20758100;28;20045;-39
2022/11/02 09:05:21;;;;;;;1.02;0.55;;;12.80;99.90;;;;;;20785936;28;20092;-39
2022/11/02 09:15:22;;;;;;;2.75;1.15;;;13.00;99.90;;;;;;20779723;28;20041;-39
2022/11/02 09:25:23;;;;;;;1.27;0.30;;;13.10;99.90;;;;;;20748176;28;20040;-39
2022/11/02 09:35:52;;;;;;;6.50;1.02;;;13.30;99.90;;;;;;20777695;28;20646;-40
2022/11/02 09:46:03;;;;;;;0.90;0.60;;;13.40;99.90;;;;;;20751731;28;20632;-39
2022/11/02 09:56:05;;;;;;;1.13;0.40;;;13.60;99.90;;;;;;20759559;28;20268;-39
2022/11/02 10:06:15;;;;;;;1.20;0.40;;;13.70;99.90;;;;;;20757368;28;20315;-40
2022/11/02 10:16:36;;;;;;;1.33;0.80;;;14.00;99.90;;;;;;20757973;28;20083;-39
2022/11/02 10:26:42;;;;;;;2.30;0.70;;;13.80;99.90;;;;;;20693204;28;20365;-39
2022/11/02 10:36:57;;;;;;;12.85;1.52;;;13.60;99.90;;;;;;20765041;28;20116;-39
2022/11/02 10:47:14;;;;;;;3.83;0.60;;;14.00;99.90;;;;;;20727078;28;20045;-40
2022/11/02 10:57:22;;;;;;;4.47;1.48;;;14.60;99.90;;;;;;20709050;28;20030;-40
2022/11/02 11:07:26;;;;;;;1.27;0.60;;;14.60;99.90;;;;;;20711573;28;20052;-40
2022/11/02 11:17:32;;;;;;;1.17;0.35;;;15.10;99.90;;;;;;20669577;28;20033;-37
2022/11/02 11:27:50;;;;;;;2.95;0.40;;;15.80;99.90;;;;;;20709727;28;20829;-37
2022/11/02 11:38:00;;;;;;;2.45;1.38;;;15.90;99.90;;;;;;20693590;28;20778;-38
2022/11/02 11:48:06;;;;;;;2.03;0.63;;;15.60;99.90;;;;;;20704484;28;20042;-37
2022/11/02 11:58:25;;;;;;;3.72;0.57;;;16.00;99.90;;;;;;20702397;28;20123;-37
2022/11/02 12:08:38;;;;;;;2.58;0.70;;;16.40;99.90;;;;;;20706019;28;20538;-37
2022/11/02 12:18:57;;;;;;;1.67;0.80;;;16.40;99.90;;;;;;20700082;28;22185;-37
2022/11/02 12:28:58;;;;;;;1.65;0.63;;;16.90;99.90;;;;;;20695053;28;20045;-37
2022/11/02 12:39:07;;;;;;;6.75;1.58;;;17.00;99.90;;;;;;20708375;28;20228;-38
2022/11/02 12:49:24;;;;;;;2.85;0.93;;;16.70;99.90;;;;;;20694904;28;20046;-38
2022/11/02 12:59:25;;;;;;;1.70;0.50;;;17.00;99.90;;;;;;20701723;28;20692;-38
2022/11/02 13:09:53;;;;;;;1.92;0.47;;;17.10;99.90;;;;;;20705571;28;20136;-38
2022/11/02 13:19:58;;;;;;;2.50;1.15;;;16.60;99.90;;;;;;20684713;28;20896;-37
2022/11/02 13:30:03;;;;;;;1.63;0.80;;;16.40;99.90;;;;;;20688849;28;20053;-37
2022/11/02 13:40:27;;;;;;;3.13;0.65;;;16.10;99.90;;;;;;20680542;28;20613;-37
2022/11/02 13:50:31;;;;;;;1.15;0.50;;;15.40;99.90;;;;;;20686600;28;20050;-37
2022/11/02 14:00:43;;;;;;;7.00;1.13;;;14.90;99.90;;;;;;20678558;28;20763;-37
2022/11/02 14:11:09;;;;;;;1.25;0.45;;;15.00;99.90;;;;;;20699177;28;20881;-37
2022/11/02 14:21:40;;;;;;;1.42;0.50;;;15.00;99.90;;;;;;20704653;28;20073;-37
2022/11/02 14:31:51;;;;;;;3.17;0.90;;;15.20;99.90;;;;;;20691647;28;20876;-38
2022/11/02 14:42:24;;;;;;;4.78;1.30;;;14.80;99.90;;;;;;20687496;28;20616;-38
2022/11/02 14:52:28;;;;;;;2.80;1.50;;;14.70;99.90;;;;;;20702483;28;20076;-37
2022/11/02 15:02:38;;;;;;;1.58;0.60;;;14.70;99.90;;;;;;20697832;28;20099;-37
2022/11/02 15:12:40;;;;;;;2.40;0.60;;;14.60;99.90;;;;;;20698810;28;23092;-37
2022/11/02 15:22:49;;;;;;;11.70;1.52;;;14.30;99.90;;;;;;20708862;28;20088;-37
2022/11/02 15:32:57;;;;;;;6.78;0.88;;;14.00;99.90;;;;;;20700512;28;20438;-37
2022/11/02 15:43:25;;;;;;;7.20;1.25;;;13.90;99.90;;;;;;20672864;28;20127;-37
2022/11/02 15:53:35;;;;;;;4.03;2.10;;;13.70;99.90;;;;;;20701087;28;20598;-37
2022/11/02 16:03:36;;;;;;;2.45;1.10;;;13.50;99.90;;;;;;20625895;28;20851;-37
2022/11/02 16:13:38;;;;;;;8.55;2.47;;;13.30;99.90;;;;;;20628039;28;20204;-37
2022/11/02 16:23:42;;;;;;;2.00;0.82;;;13.20;99.90;;;;;;20616092;28;20132;-37
2022/11/02 16:33:55;;;;;;;3.10;1.27;;;13.00;99.90;;;;;;20718730;28;20041;-37
2022/11/02 16:43:59;;;;;;;2.33;0.77;;;13.00;99.90;;;;;;20680332;28;20592;-37
2022/11/02 16:54:17;;;;;;;2.65;0.80;;;12.90;99.90;;;;;;20687858;28;20053;-39
2022/11/02 17:04:23;;;;;;;6.00;1.90;;;12.80;99.90;;;;;;20689695;28;20075;-40
2022/11/02 17:14:25;;;;;;;2.13;0.80;;;12.90;99.90;;;;;;20642097;28;20175;-40
2022/11/02 17:24:31;;;;;;;2.38;0.82;;;12.80;99.90;;;;;;20698865;28;20509;-40
2022/11/02 17:34:34;;;;;;;1.65;0.73;;;12.70;99.90;;;;;;20696483;28;21769;-40
2022/11/02 17:44:35;;;;;;;2.38;0.68;;;12.70;99.90;;;;;;20704220;28;20925;-40
2022/11/02 17:54:36;;;;;;;5.40;0.70;;;12.70;99.90;;;;;;20703476;28;20057;-40
2022/11/02 18:04:37;;;;;;;3.90;1.45;;;12.60;99.90;;;;;;20711166;28;20050;-40
2022/11/02 18:14:39;;;;;;;1.95;0.98;;;12.60;99.90;;;;;;20701772;28;20406;-40
2022/11/02 18:24:40;;;;;;;3.42;0.95;;;12.60;99.90;;;;;;20705300;28;20042;-39
2022/11/02 18:34:41;;;;;;;3.50;1.10;;;12.70;99.90;;;;;;20690346;28;20191;-39
2022/11/02 18:44:42;;;;;;;2.47;0.47;;;12.70;99.90;;;;;;20693716;28;20506;-39
2022/11/02 18:54:43;;;;;;;2.03;0.70;;;12.60;99.90;;;;;;20697236;28;20288;-39
2022/11/02 19:04:44;;;;;;;3.90;0.70;;;12.70;99.90;;;;;;20680211;28;20132;-40
2022/11/02 19:14:48;;;;;;;3.28;1.05;;;12.70;99.90;;;;;;20673624;28;20223;-40
2022/11/02 19:24:50;;;;;;;5.85;0.90;;;12.60;99.90;;;;;;20681802;28;20970;-40
2022/11/02 19:34:51;;;;;;;2.85;0.90;;;12.50;99.90;;;;;;20692528;28;20132;-39
2022/11/02 19:44:52;;;;;;;2.70;0.50;;;12.60;99.90;;;;;;20677642;28;20120;-39
2022/11/02 19:54:53;;;;;;;2.60;0.77;;;12.50;99.90;;;;;;20678746;28;20325;-40
2022/11/02 20:04:54;;;;;;;2.70;0.75;;;12.50;99.90;;;;;;20690128;28;20061;-40
2022/11/02 20:14:55;;;;;;;1.83;0.52;;;12.40;99.90;;;;;;20693517;28;20495;-40
2022/11/02 20:24:55;;;;;;;3.90;1.10;;;12.30;99.90;;;;;;20680850;28;20402;-40
2022/11/02 20:34:56;;;;;;;2.78;1.13;;;12.40;99.90;;;;;;20692845;28;20041;-39
2022/11/02 20:44:57;;;;;;;10.75;2.15;;;12.30;99.90;;;;;;20696027;28;20037;-40
2022/11/02 20:54:58;;;;;;;3.95;0.88;;;12.30;99.90;;;;;;20691466;28;20046;-40
2022/11/02 21:04:59;;;;;;;2.28;0.95;;;12.20;99.90;;;;;;20676337;28;20128;-47
2022/11/02 21:15:01;;;;;;;3.90;1.50;;;12.30;99.90;;;;;;20629489;28;20073;-40
2022/11/02 21:25:02;;;;;;;4.10;1.30;;;12.20;99.90;;;;;;20605230;28;20060;-40
2022/11/02 21:35:03;;;;;;;3.13;1.77;;;12.20;99.90;;;;;;20632706;28;20517;-39
2022/11/02 21:45:05;;;;;;;8.15;1.60;;;12.20;99.90;;;;;;20617161;28;20038;-40
2022/11/02 21:55:07;;;;;;;4.35;1.75;;;12.20;99.90;;;;;;20596518;28;20432;-40
2022/11/02 22:05:53;;;;;;;10.30;1.58;;;12.10;99.90;;;;;;20655112;28;20108;-40
2022/11/02 22:15:29;;;;;;;3.17;1.35;;;12.10;99.90;;;;;;20660055;28;20062;-40
2022/11/02 22:25:30;;;;;;;3.33;0.73;;;12.00;99.90;;;;;;20651340;28;20084;-40
2022/11/02 22:35:31;;;;;;;4.43;2.03;;;12.00;99.90;;;;;;20665404;28;21564;-40
2022/11/02 22:45:32;;;;;;;6.35;1.30;;;12.00;99.90;;;;;;20654921;28;20061;-40
2022/11/02 22:55:33;;;;;;;2.25;1.30;;;11.90;99.90;;;;;;20604578;28;20076;-40
2022/11/02 23:05:34;;;;;;;6.63;0.88;;;11.90;99.90;;;;;;20661309;28;20092;-40
2022/11/02 23:15:35;;;;;;;4.13;1.00;;;11.90;99.90;;;;;;20668669;28;20160;-40
2022/11/02 23:25:36;;;;;;;4.68;1.40;;;11.90;99.90;;;;;;20659273;28;20113;-40
2022/11/02 23:45:56;;;;;;;1.60;0.90;;;11.80;99.90;;;;;;20612756;28;20490;-40
